sensor_id;sensor_type;location;lat;lon;timestamp;P1;durP1;ratioP1;P2;durP2;ratioP2
70667;SDS011;58242;51.250;-1.118;2022-08-06T00:01:08;2.13;;;2.03;;
70667;SDS011;58242;51.250;-1.118;2022-08-06T00:03:34;2.97;;;2.78;;
70667;SDS011;58242;51.250;-1.118;2022-08-06T00:05:59;2.75;;;2.55;;
70667;SDS011;58242;51.250;-1.118;2022-08-06T00:08:24;2.40;;;2.20;;
70667;SDS011;58242;51.250;-1.118;2022-08-06T00:10:50;3.10;;;2.80;;
70667;SDS011;58242;51.250;-1.118;2022-08-06T00:13:15;2.90;;;2.70;;
70667;SDS011;58242;51.250;-1.118;2022-08-06T00:15:42;2.30;;;2.10;;
70667;SDS011;58242;51.250;-1.118;2022-08-06T00:18:08;2.42;;;2.33;;
70667;SDS011;58242;51.250;-1.118;2022-08-06T00:20:33;3.25;;;2.58;;
70667;SDS011;58242;51.250;-1.118;2022-08-06T00:22:59;3.10;;;2.78;;
70667;SDS011;58242;51.250;-1.118;2022-08-06T00:25:24;2.50;;;2.30;;
70667;SDS011;58242;51.250;-1.118;2022-08-06T00:27:50;2.60;;;2.40;;
70667;SDS011;58242;51.250;-1.118;2022-08-06T00:30:15;2.97;;;2.78;;
70667;SDS011;58242;51.250;-1.118;2022-08-06T00:32:41;3.15;;;2.78;;
70667;SDS011;58242;51.250;-1.118;2022-08-06T00:35:06;3.30;;;2.70;;
70667;SDS011;58242;51.250;-1.118;2022-08-06T00:37:31;4.10;;;2.88;;
70667;SDS011;58242;51.250;-1.118;2022-08-06T00:40:00;2.78;;;2.58;;
70667;SDS011;58242;51.250;-1.118;2022-08-06T00:42:26;2.78;;;2.47;;
70667;SDS011;58242;51.250;-1.118;2022-08-06T00:44:52;2.90;;;2.70;;
70667;SDS011;58242;51.250;-1.118;2022-08-06T00:47:17;2.70;;;2.50;;
70667;SDS011;58242;51.250;-1.118;2022-08-06T00:49:42;3.03;;;2.78;;
70667;SDS011;58242;51.250;-1.118;2022-08-06T00:52:08;2.90;;;2.70;;
70667;SDS011;58242;51.250;-1.118;2022-08-06T00:54:33;3.10;;;2.90;;
70667;SDS011;58242;51.250;-1.118;2022-08-06T00:56:59;3.10;;;2.83;;
70667;SDS011;58242;51.250;-1.118;2022-08-06T00:59:24;3.67;;;3.38;;
70667;SDS011;58242;51.250;-1.118;2022-08-06T01:01:49;3.10;;;2.90;;
70667;SDS011;58242;51.250;-1.118;2022-08-06T01:04:15;3.00;;;2.85;;
70667;SDS011;58242;51.250;-1.118;2022-08-06T01:06:40;2.95;;;2.75;;
70667;SDS011;58242;51.250;-1.118;2022-08-06T01:09:06;3.70;;;3.20;;
70667;SDS011;58242;51.250;-1.118;2022-08-06T01:11:31;3.60;;;3.08;;
70667;SDS011;58242;51.250;-1.118;2022-08-06T01:13:57;3.38;;;3.03;;
70667;SDS011;58242;51.250;-1.118;2022-08-06T01:16:44;3.00;;;2.75;;
70667;SDS011;58242;51.250;-1.118;2022-08-06T01:24:39;2.92;;;2.72;;
70667;SDS011;58242;51.250;-1.118;2022-08-06T01:30:07;3.03;;;2.83;;
70667;SDS011;58242;51.250;-1.118;2022-08-06T01:32:52;4.35;;;3.30;;
70667;SDS011;58242;51.250;-1.118;2022-08-06T01:35:24;2.70;;;2.60;;
70667;SDS011;58242;51.250;-1.118;2022-08-06T01:40:24;3.42;;;3.13;;
70667;SDS011;58242;51.250;-1.118;2022-08-06T01:42:54;2.92;;;2.72;;
70667;SDS011;58242;51.250;-1.118;2022-08-06T01:45:22;3.53;;;3.22;;
70667;SDS011;58242;51.250;-1.118;2022-08-06T01:47:51;3.40;;;2.65;;
70667;SDS011;58242;51.250;-1.118;2022-08-06T01:50:19;3.10;;;2.90;;
70667;SDS011;58242;51.250;-1.118;2022-08-06T01:52:47;3.10;;;2.90;;
70667;SDS011;58242;51.250;-1.118;2022-08-06T01:55:15;3.50;;;3.30;;
70667;SDS011;58242;51.250;-1.118;2022-08-06T01:57:50;3.50;;;3.30;;
70667;SDS011;58242;51.250;-1.118;2022-08-06T02:00:17;3.53;;;3.25;;
70667;SDS011;58242;51.250;-1.118;2022-08-06T02:02:44;3.95;;;3.40;;
70667;SDS011;58242;51.250;-1.118;2022-08-06T02:05:11;3.80;;;3.50;;
70667;SDS011;58242;51.250;-1.118;2022-08-06T02:07:40;3.83;;;3.50;;
70667;SDS011;58242;51.250;-1.118;2022-08-06T02:10:08;4.25;;;3.58;;
70667;SDS011;58242;51.250;-1.118;2022-08-06T02:12:34;4.07;;;3.70;;
70667;SDS011;58242;51.250;-1.118;2022-08-06T02:15:06;5.25;;;4.10;;
70667;SDS011;58242;51.250;-1.118;2022-08-06T02:17:47;4.15;;;3.85;;
70667;SDS011;58242;51.250;-1.118;2022-08-06T02:20:16;4.15;;;3.85;;
70667;SDS011;58242;51.250;-1.118;2022-08-06T02:22:44;4.30;;;3.90;;
70667;SDS011;58242;51.250;-1.118;2022-08-06T02:25:12;4.03;;;3.63;;
70667;SDS011;58242;51.250;-1.118;2022-08-06T02:27:40;4.53;;;3.88;;
70667;SDS011;58242;51.250;-1.118;2022-08-06T02:30:11;4.13;;;3.72;;
70667;SDS011;58242;51.250;-1.118;2022-08-06T02:32:37;3.53;;;3.33;;
70667;SDS011;58242;51.250;-1.118;2022-08-06T02:35:04;3.33;;;3.13;;
70667;SDS011;58242;51.250;-1.118;2022-08-06T02:37:31;3.65;;;3.35;;
70667;SDS011;58242;51.250;-1.118;2022-08-06T02:40:08;4.93;;;3.80;;
70667;SDS011;58242;51.250;-1.118;2022-08-06T02:42:37;3.45;;;3.25;;
70667;SDS011;58242;51.250;-1.118;2022-08-06T02:45:18;2.90;;;2.80;;
70667;SDS011;58242;51.250;-1.118;2022-08-06T02:47:57;5.03;;;3.88;;
70667;SDS011;58242;51.250;-1.118;2022-08-06T02:50:40;3.78;;;3.42;;
70667;SDS011;58242;51.250;-1.118;2022-08-06T02:53:10;4.05;;;3.75;;
70667;SDS011;58242;51.250;-1.118;2022-08-06T02:55:42;4.15;;;3.85;;
70667;SDS011;58242;51.250;-1.118;2022-08-06T02:58:12;4.43;;;4.03;;
70667;SDS011;58242;51.250;-1.118;2022-08-06T03:00:41;4.50;;;4.10;;
70667;SDS011;58242;51.250;-1.118;2022-08-06T03:03:09;4.10;;;3.80;;
70667;SDS011;58242;51.250;-1.118;2022-08-06T03:05:38;3.95;;;3.55;;
70667;SDS011;58242;51.250;-1.118;2022-08-06T03:08:06;4.25;;;3.85;;
70667;SDS011;58242;51.250;-1.118;2022-08-06T03:10:35;3.77;;;3.47;;
70667;SDS011;58242;51.250;-1.118;2022-08-06T03:13:01;3.90;;;3.60;;
70667;SDS011;58242;51.250;-1.118;2022-08-06T03:15:30;4.13;;;3.72;;
70667;SDS011;58242;51.250;-1.118;2022-08-06T03:17:57;4.82;;;4.05;;
70667;SDS011;58242;51.250;-1.118;2022-08-06T03:20:25;4.70;;;4.28;;
70667;SDS011;58242;51.250;-1.118;2022-08-06T03:22:52;4.25;;;3.95;;
70667;SDS011;58242;51.250;-1.118;2022-08-06T03:25:21;4.13;;;3.83;;
70667;SDS011;58242;51.250;-1.118;2022-08-06T03:27:48;4.20;;;3.80;;
70667;SDS011;58242;51.250;-1.118;2022-08-06T03:30:15;5.15;;;4.10;;
70667;SDS011;58242;51.250;-1.118;2022-08-06T03:32:42;3.63;;;3.33;;
70667;SDS011;58242;51.250;-1.118;2022-08-06T03:35:10;3.65;;;3.33;;
70667;SDS011;58242;51.250;-1.118;2022-08-06T03:37:36;3.25;;;3.05;;
70667;SDS011;58242;51.250;-1.118;2022-08-06T03:40:03;4.63;;;4.22;;
70667;SDS011;58242;51.250;-1.118;2022-08-06T03:42:30;4.60;;;4.20;;
70667;SDS011;58242;51.250;-1.118;2022-08-06T03:44:55;4.43;;;4.03;;
70667;SDS011;58242;51.250;-1.118;2022-08-06T03:47:22;4.72;;;4.43;;
70667;SDS011;58242;51.250;-1.118;2022-08-06T03:52:20;5.30;;;4.05;;
70667;SDS011;58242;51.250;-1.118;2022-08-06T03:54:50;4.18;;;3.88;;
70667;SDS011;58242;51.250;-1.118;2022-08-06T03:57:18;3.97;;;3.67;;
70667;SDS011;58242;51.250;-1.118;2022-08-06T03:59:46;4.15;;;3.85;;
70667;SDS011;58242;51.250;-1.118;2022-08-06T04:02:14;4.88;;;4.45;;
70667;SDS011;58242;51.250;-1.118;2022-08-06T04:04:40;4.43;;;4.03;;
70667;SDS011;58242;51.250;-1.118;2022-08-06T04:07:07;5.57;;;4.93;;
70667;SDS011;58242;51.250;-1.118;2022-08-06T04:09:33;5.68;;;5.18;;
70667;SDS011;58242;51.250;-1.118;2022-08-06T04:12:00;5.07;;;4.63;;
70667;SDS011;58242;51.250;-1.118;2022-08-06T04:14:27;5.28;;;4.75;;
70667;SDS011;58242;51.250;-1.118;2022-08-06T04:16:53;6.88;;;5.07;;
70667;SDS011;58242;51.250;-1.118;2022-08-06T04:19:20;5.63;;;5.13;;
70667;SDS011;58242;51.250;-1.118;2022-08-06T04:21:47;5.13;;;4.65;;
70667;SDS011;58242;51.250;-1.118;2022-08-06T04:24:13;5.15;;;4.65;;
70667;SDS011;58242;51.250;-1.118;2022-08-06T04:26:39;5.55;;;5.05;;
70667;SDS011;58242;51.250;-1.118;2022-08-06T04:29:09;4.63;;;4.28;;
70667;SDS011;58242;51.250;-1.118;2022-08-06T04:31:36;4.85;;;4.45;;
70667;SDS011;58242;51.250;-1.118;2022-08-06T04:34:03;7.57;;;5.30;;
70667;SDS011;58242;51.250;-1.118;2022-08-06T04:36:29;5.20;;;4.70;;
70667;SDS011;58242;51.250;-1.118;2022-08-06T04:38:55;4.80;;;4.22;;
70667;SDS011;58242;51.250;-1.118;2022-08-06T04:41:21;5.40;;;4.90;;
70667;SDS011;58242;51.250;-1.118;2022-08-06T04:43:47;6.20;;;5.60;;
70667;SDS011;58242;51.250;-1.118;2022-08-06T04:46:13;4.82;;;4.32;;
70667;SDS011;58242;51.250;-1.118;2022-08-06T04:48:39;4.97;;;4.47;;
70667;SDS011;58242;51.250;-1.118;2022-08-06T04:51:04;6.47;;;5.45;;
70667;SDS011;58242;51.250;-1.118;2022-08-06T04:53:37;5.35;;;4.75;;
70667;SDS011;58242;51.250;-1.118;2022-08-06T04:56:07;5.13;;;4.72;;
70667;SDS011;58242;51.250;-1.118;2022-08-06T04:58:34;5.75;;;5.25;;
70667;SDS011;58242;51.250;-1.118;2022-08-06T05:01:00;5.43;;;4.93;;
70667;SDS011;58242;51.250;-1.118;2022-08-06T05:03:26;5.07;;;4.57;;
70667;SDS011;58242;51.250;-1.118;2022-08-06T05:06:08;4.95;;;4.55;;
70667;SDS011;58242;51.250;-1.118;2022-08-06T05:08:38;4.97;;;4.47;;
70667;SDS011;58242;51.250;-1.118;2022-08-06T05:11:50;4.38;;;4.07;;
70667;SDS011;58242;51.250;-1.118;2022-08-06T05:14:20;4.50;;;4.15;;
70667;SDS011;58242;51.250;-1.118;2022-08-06T05:16:51;4.28;;;3.80;;
70667;SDS011;58242;51.250;-1.118;2022-08-06T05:19:24;6.30;;;4.38;;
70667;SDS011;58242;51.250;-1.118;2022-08-06T05:21:53;4.82;;;4.38;;
70667;SDS011;58242;51.250;-1.118;2022-08-06T05:24:22;5.50;;;5.03;;
70667;SDS011;58242;51.250;-1.118;2022-08-06T05:26:47;6.13;;;4.97;;
70667;SDS011;58242;51.250;-1.118;2022-08-06T05:29:17;5.88;;;5.30;;
70667;SDS011;58242;51.250;-1.118;2022-08-06T05:31:43;5.95;;;5.40;;
70667;SDS011;58242;51.250;-1.118;2022-08-06T05:34:10;5.20;;;4.70;;
70667;SDS011;58242;51.250;-1.118;2022-08-06T05:36:36;4.85;;;4.45;;
70667;SDS011;58242;51.250;-1.118;2022-08-06T05:39:03;5.57;;;5.07;;
70667;SDS011;58242;51.250;-1.118;2022-08-06T05:41:29;5.60;;;5.03;;
70667;SDS011;58242;51.250;-1.118;2022-08-06T05:43:54;5.78;;;5.13;;
70667;SDS011;58242;51.250;-1.118;2022-08-06T05:46:20;6.13;;;5.53;;
70667;SDS011;58242;51.250;-1.118;2022-08-06T05:48:54;6.88;;;5.55;;
70667;SDS011;58242;51.250;-1.118;2022-08-06T05:51:31;6.10;;;5.50;;
70667;SDS011;58242;51.250;-1.118;2022-08-06T05:54:05;5.95;;;5.45;;
70667;SDS011;58242;51.250;-1.118;2022-08-06T05:56:47;6.10;;;5.15;;
70667;SDS011;58242;51.250;-1.118;2022-08-06T05:59:19;5.70;;;4.78;;
70667;SDS011;58242;51.250;-1.118;2022-08-06T06:01:48;5.93;;;5.22;;
70667;SDS011;58242;51.250;-1.118;2022-08-06T06:04:14;6.10;;;5.47;;
70667;SDS011;58242;51.250;-1.118;2022-08-06T06:06:41;7.45;;;5.70;;
70667;SDS011;58242;51.250;-1.118;2022-08-06T06:09:07;5.68;;;5.18;;
70667;SDS011;58242;51.250;-1.118;2022-08-06T06:11:33;6.45;;;5.43;;
70667;SDS011;58242;51.250;-1.118;2022-08-06T06:13:59;6.70;;;4.75;;
70667;SDS011;58242;51.250;-1.118;2022-08-06T06:16:29;5.60;;;5.10;;
70667;SDS011;58242;51.250;-1.118;2022-08-06T06:19:39;5.40;;;4.90;;
70667;SDS011;58242;51.250;-1.118;2022-08-06T06:22:41;6.80;;;5.03;;
70667;SDS011;58242;51.250;-1.118;2022-08-06T06:25:13;6.68;;;5.35;;
70667;SDS011;58242;51.250;-1.118;2022-08-06T06:33:27;5.10;;;4.63;;
70667;SDS011;58242;51.250;-1.118;2022-08-06T06:36:03;6.50;;;4.60;;
70667;SDS011;58242;51.250;-1.118;2022-08-06T06:41:18;5.68;;;5.18;;
70667;SDS011;58242;51.250;-1.118;2022-08-06T06:43:55;4.80;;;4.40;;
70667;SDS011;58242;51.250;-1.118;2022-08-06T06:46:31;6.18;;;4.47;;
70667;SDS011;58242;51.250;-1.118;2022-08-06T06:49:29;5.57;;;4.90;;
70667;SDS011;58242;51.250;-1.118;2022-08-06T06:52:13;5.32;;;4.82;;
70667;SDS011;58242;51.250;-1.118;2022-08-06T06:54:45;6.10;;;5.50;;
70667;SDS011;58242;51.250;-1.118;2022-08-06T06:57:20;5.38;;;4.70;;
70667;SDS011;58242;51.250;-1.118;2022-08-06T06:59:51;6.60;;;5.20;;
70667;SDS011;58242;51.250;-1.118;2022-08-06T07:02:19;5.38;;;4.85;;
70667;SDS011;58242;51.250;-1.118;2022-08-06T07:04:49;6.53;;;5.32;;
70667;SDS011;58242;51.250;-1.118;2022-08-06T07:07:16;5.18;;;4.72;;
70667;SDS011;58242;51.250;-1.118;2022-08-06T07:09:43;4.45;;;4.10;;
70667;SDS011;58242;51.250;-1.118;2022-08-06T07:12:10;6.45;;;4.60;;
70667;SDS011;58242;51.250;-1.118;2022-08-06T07:14:37;3.97;;;3.67;;
70667;SDS011;58242;51.250;-1.118;2022-08-06T07:17:05;4.10;;;3.80;;
70667;SDS011;58242;51.250;-1.118;2022-08-06T07:19:32;4.35;;;3.92;;
70667;SDS011;58242;51.250;-1.118;2022-08-06T07:21:58;3.90;;;3.42;;
70667;SDS011;58242;51.250;-1.118;2022-08-06T07:24:25;3.60;;;3.30;;
70667;SDS011;58242;51.250;-1.118;2022-08-06T07:26:55;6.22;;;4.13;;
70667;SDS011;58242;51.250;-1.118;2022-08-06T07:29:22;5.63;;;4.60;;
70667;SDS011;58242;51.250;-1.118;2022-08-06T07:31:49;3.90;;;3.60;;
70667;SDS011;58242;51.250;-1.118;2022-08-06T07:34:16;4.80;;;3.85;;
70667;SDS011;58242;51.250;-1.118;2022-08-06T07:36:48;3.97;;;3.67;;
70667;SDS011;58242;51.250;-1.118;2022-08-06T07:39:24;5.70;;;4.05;;
70667;SDS011;58242;51.250;-1.118;2022-08-06T07:41:53;3.80;;;3.50;;
70667;SDS011;58242;51.250;-1.118;2022-08-06T07:44:21;3.70;;;3.40;;
70667;SDS011;58242;51.250;-1.118;2022-08-06T07:46:48;3.58;;;3.28;;
70667;SDS011;58242;51.250;-1.118;2022-08-06T07:49:17;4.90;;;4.07;;
70667;SDS011;58242;51.250;-1.118;2022-08-06T07:51:45;4.00;;;3.63;;
70667;SDS011;58242;51.250;-1.118;2022-08-06T07:54:13;3.60;;;3.28;;
70667;SDS011;58242;51.250;-1.118;2022-08-06T07:56:41;3.65;;;3.35;;
70667;SDS011;58242;51.250;-1.118;2022-08-06T07:59:08;4.13;;;3.43;;
70667;SDS011;58242;51.250;-1.118;2022-08-06T08:01:34;4.00;;;3.60;;
70667;SDS011;58242;51.250;-1.118;2022-08-06T08:04:01;3.88;;;3.15;;
70667;SDS011;58242;51.250;-1.118;2022-08-06T08:06:45;4.13;;;3.63;;
70667;SDS011;58242;51.250;-1.118;2022-08-06T08:09:14;5.03;;;3.75;;
70667;SDS011;58242;51.250;-1.118;2022-08-06T08:11:41;3.85;;;3.55;;
70667;SDS011;58242;51.250;-1.118;2022-08-06T08:14:08;4.13;;;3.63;;
70667;SDS011;58242;51.250;-1.118;2022-08-06T08:16:35;6.30;;;3.78;;
70667;SDS011;58242;51.250;-1.118;2022-08-06T08:19:01;4.28;;;3.85;;
70667;SDS011;58242;51.250;-1.118;2022-08-06T08:21:27;3.10;;;2.85;;
70667;SDS011;58242;51.250;-1.118;2022-08-06T08:23:54;3.15;;;2.90;;
70667;SDS011;58242;51.250;-1.118;2022-08-06T08:26:20;5.65;;;4.28;;
70667;SDS011;58242;51.250;-1.118;2022-08-06T08:28:46;3.88;;;3.58;;
70667;SDS011;58242;51.250;-1.118;2022-08-06T08:31:12;3.55;;;3.08;;
70667;SDS011;58242;51.250;-1.118;2022-08-06T08:33:38;5.70;;;3.60;;
70667;SDS011;58242;51.250;-1.118;2022-08-06T08:36:04;3.10;;;2.90;;
70667;SDS011;58242;51.250;-1.118;2022-08-06T08:38:31;4.03;;;3.72;;
70667;SDS011;58242;51.250;-1.118;2022-08-06T08:41:06;4.28;;;3.80;;
70667;SDS011;58242;51.250;-1.118;2022-08-06T08:43:46;3.92;;;3.63;;
70667;SDS011;58242;51.250;-1.118;2022-08-06T08:46:15;4.15;;;3.53;;
70667;SDS011;58242;51.250;-1.118;2022-08-06T08:48:41;3.78;;;3.47;;
70667;SDS011;58242;51.250;-1.118;2022-08-06T08:51:08;3.65;;;3.35;;
70667;SDS011;58242;51.250;-1.118;2022-08-06T08:53:37;4.18;;;3.85;;
70667;SDS011;58242;51.250;-1.118;2022-08-06T08:56:07;5.30;;;3.95;;
70667;SDS011;58242;51.250;-1.118;2022-08-06T08:58:33;4.55;;;3.53;;
70667;SDS011;58242;51.250;-1.118;2022-08-06T09:03:29;3.90;;;3.50;;
70667;SDS011;58242;51.250;-1.118;2022-08-06T09:05:55;3.90;;;3.47;;
70667;SDS011;58242;51.250;-1.118;2022-08-06T09:08:20;3.88;;;3.58;;
70667;SDS011;58242;51.250;-1.118;2022-08-06T09:10:46;3.33;;;3.03;;
70667;SDS011;58242;51.250;-1.118;2022-08-06T09:13:11;3.55;;;3.35;;
70667;SDS011;58242;51.250;-1.118;2022-08-06T09:15:37;3.58;;;3.28;;
70667;SDS011;58242;51.250;-1.118;2022-08-06T09:18:03;3.17;;;2.95;;
70667;SDS011;58242;51.250;-1.118;2022-08-06T09:20:29;3.85;;;3.55;;
70667;SDS011;58242;51.250;-1.118;2022-08-06T09:22:55;3.53;;;3.22;;
70667;SDS011;58242;51.250;-1.118;2022-08-06T09:25:40;4.15;;;2.95;;
70667;SDS011;58242;51.250;-1.118;2022-08-06T09:28:10;3.15;;;2.92;;
70667;SDS011;58242;51.250;-1.118;2022-08-06T09:30:56;3.30;;;3.00;;
70667;SDS011;58242;51.250;-1.118;2022-08-06T09:33:42;3.13;;;2.83;;
70667;SDS011;58242;51.250;-1.118;2022-08-06T09:36:17;3.60;;;3.30;;
70667;SDS011;58242;51.250;-1.118;2022-08-06T09:41:17;2.88;;;2.75;;
70667;SDS011;58242;51.250;-1.118;2022-08-06T09:43:47;3.22;;;2.88;;
70667;SDS011;58242;51.250;-1.118;2022-08-06T09:46:14;3.05;;;2.80;;
70667;SDS011;58242;51.250;-1.118;2022-08-06T09:48:59;2.83;;;2.60;;
70667;SDS011;58242;51.250;-1.118;2022-08-06T09:51:26;2.53;;;2.33;;
70667;SDS011;58242;51.250;-1.118;2022-08-06T09:53:53;2.28;;;2.17;;
70667;SDS011;58242;51.250;-1.118;2022-08-06T09:56:19;2.67;;;2.40;;
70667;SDS011;58242;51.250;-1.118;2022-08-06T09:58:45;3.05;;;2.78;;
70667;SDS011;58242;51.250;-1.118;2022-08-06T10:01:11;2.58;;;2.38;;
70667;SDS011;58242;51.250;-1.118;2022-08-06T10:03:38;3.25;;;2.63;;
70667;SDS011;58242;51.250;-1.118;2022-08-06T10:06:06;3.22;;;2.60;;
70667;SDS011;58242;51.250;-1.118;2022-08-06T10:08:35;2.53;;;2.03;;
70667;SDS011;58242;51.250;-1.118;2022-08-06T10:11:01;2.58;;;2.22;;
70667;SDS011;58242;51.250;-1.118;2022-08-06T10:13:30;3.47;;;2.22;;
70667;SDS011;58242;51.250;-1.118;2022-08-06T10:15:58;2.45;;;2.22;;
70667;SDS011;58242;51.250;-1.118;2022-08-06T10:18:38;2.83;;;2.60;;
70667;SDS011;58242;51.250;-1.118;2022-08-06T10:23:41;2.30;;;2.10;;
70667;SDS011;58242;51.250;-1.118;2022-08-06T10:26:11;2.13;;;1.73;;
70667;SDS011;58242;51.250;-1.118;2022-08-06T10:28:38;2.20;;;2.00;;
70667;SDS011;58242;51.250;-1.118;2022-08-06T10:31:07;1.88;;;1.77;;
70667;SDS011;58242;51.250;-1.118;2022-08-06T10:33:44;2.30;;;2.10;;
70667;SDS011;58242;51.250;-1.118;2022-08-06T10:36:14;1.90;;;1.80;;
70667;SDS011;58242;51.250;-1.118;2022-08-06T10:38:49;1.98;;;1.88;;
70667;SDS011;58242;51.250;-1.118;2022-08-06T10:41:15;2.20;;;2.00;;
70667;SDS011;58242;51.250;-1.118;2022-08-06T10:43:41;2.38;;;2.28;;
70667;SDS011;58242;51.250;-1.118;2022-08-06T10:46:07;2.05;;;1.90;;
70667;SDS011;58242;51.250;-1.118;2022-08-06T10:48:38;2.78;;;2.58;;
70667;SDS011;58242;51.250;-1.118;2022-08-06T10:51:05;2.53;;;2.15;;
70667;SDS011;58242;51.250;-1.118;2022-08-06T10:53:32;2.35;;;2.15;;
70667;SDS011;58242;51.250;-1.118;2022-08-06T10:56:03;2.20;;;2.00;;
70667;SDS011;58242;51.250;-1.118;2022-08-06T10:58:30;1.90;;;1.80;;
70667;SDS011;58242;51.250;-1.118;2022-08-06T11:01:00;2.42;;;1.83;;
70667;SDS011;58242;51.250;-1.118;2022-08-06T11:06:31;2.20;;;1.90;;
70667;SDS011;58242;51.250;-1.118;2022-08-06T11:12:22;3.42;;;2.00;;
70667;SDS011;58242;51.250;-1.118;2022-08-06T11:15:18;6.20;;;2.00;;
70667;SDS011;58242;51.250;-1.118;2022-08-06T11:17:49;2.13;;;1.70;;
70667;SDS011;58242;51.250;-1.118;2022-08-06T11:20:34;1.98;;;1.77;;
70667;SDS011;58242;51.250;-1.118;2022-08-06T11:25:43;2.22;;;2.00;;
70667;SDS011;58242;51.250;-1.118;2022-08-06T11:28:14;1.88;;;1.75;;
70667;SDS011;58242;51.250;-1.118;2022-08-06T11:33:19;1.75;;;1.65;;
70667;SDS011;58242;51.250;-1.118;2022-08-06T11:35:47;1.50;;;1.40;;
70667;SDS011;58242;51.250;-1.118;2022-08-06T11:38:14;2.65;;;1.58;;
70667;SDS011;58242;51.250;-1.118;2022-08-06T11:40:59;2.22;;;2.00;;
70667;SDS011;58242;51.250;-1.118;2022-08-06T11:46:27;1.80;;;1.70;;
70667;SDS011;58242;51.250;-1.118;2022-08-06T11:51:43;1.90;;;1.80;;
70667;SDS011;58242;51.250;-1.118;2022-08-06T11:54:26;2.00;;;1.80;;
70667;SDS011;58242;51.250;-1.118;2022-08-06T12:02:09;3.10;;;1.92;;
70667;SDS011;58242;51.250;-1.118;2022-08-06T12:12:33;1.92;;;1.75;;
70667;SDS011;58242;51.250;-1.118;2022-08-06T12:17:38;2.15;;;1.95;;
70667;SDS011;58242;51.250;-1.118;2022-08-06T12:20:08;1.80;;;1.70;;
70667;SDS011;58242;51.250;-1.118;2022-08-06T12:22:34;1.70;;;1.60;;
70667;SDS011;58242;51.250;-1.118;2022-08-06T12:25:07;1.88;;;1.77;;
70667;SDS011;58242;51.250;-1.118;2022-08-06T12:27:34;1.83;;;1.73;;
70667;SDS011;58242;51.250;-1.118;2022-08-06T12:30:01;3.97;;;2.05;;
70667;SDS011;58242;51.250;-1.118;2022-08-06T12:32:32;2.20;;;1.88;;
70667;SDS011;58242;51.250;-1.118;2022-08-06T12:35:04;2.13;;;1.48;;
70667;SDS011;58242;51.250;-1.118;2022-08-06T12:37:40;1.90;;;1.80;;
70667;SDS011;58242;51.250;-1.118;2022-08-06T12:40:07;1.73;;;1.63;;
70667;SDS011;58242;51.250;-1.118;2022-08-06T12:42:52;1.90;;;1.73;;
70667;SDS011;58242;51.250;-1.118;2022-08-06T12:45:38;2.03;;;1.60;;
70667;SDS011;58242;51.250;-1.118;2022-08-06T12:50:30;1.90;;;1.70;;
70667;SDS011;58242;51.250;-1.118;2022-08-06T12:53:04;2.10;;;2.00;;
70667;SDS011;58242;51.250;-1.118;2022-08-06T12:55:30;2.08;;;1.92;;
70667;SDS011;58242;51.250;-1.118;2022-08-06T12:57:56;2.15;;;1.77;;
70667;SDS011;58242;51.250;-1.118;2022-08-06T13:00:23;1.67;;;1.58;;
70667;SDS011;58242;51.250;-1.118;2022-08-06T13:02:48;1.52;;;1.42;;
70667;SDS011;58242;51.250;-1.118;2022-08-06T13:05:15;1.42;;;1.33;;
70667;SDS011;58242;51.250;-1.118;2022-08-06T13:07:41;1.50;;;1.50;;
70667;SDS011;58242;51.250;-1.118;2022-08-06T13:10:10;3.72;;;1.70;;
70667;SDS011;58242;51.250;-1.118;2022-08-06T13:12:36;1.52;;;1.42;;
70667;SDS011;58242;51.250;-1.118;2022-08-06T13:15:09;1.83;;;1.20;;
70667;SDS011;58242;51.250;-1.118;2022-08-06T13:17:39;2.17;;;1.53;;
70667;SDS011;58242;51.250;-1.118;2022-08-06T13:20:05;1.60;;;1.50;;
70667;SDS011;58242;51.250;-1.118;2022-08-06T13:22:31;1.88;;;1.50;;
70667;SDS011;58242;51.250;-1.118;2022-08-06T13:25:14;1.65;;;1.52;;
70667;SDS011;58242;51.250;-1.118;2022-08-06T13:27:44;1.60;;;1.50;;
70667;SDS011;58242;51.250;-1.118;2022-08-06T13:30:10;2.53;;;1.35;;
70667;SDS011;58242;51.250;-1.118;2022-08-06T13:32:36;1.60;;;1.50;;
70667;SDS011;58242;51.250;-1.118;2022-08-06T13:35:05;1.52;;;1.42;;
70667;SDS011;58242;51.250;-1.118;2022-08-06T13:37:51;2.53;;;1.95;;
70667;SDS011;58242;51.250;-1.118;2022-08-06T13:40:18;1.23;;;1.20;;
70667;SDS011;58242;51.250;-1.118;2022-08-06T13:42:47;1.40;;;1.35;;
70667;SDS011;58242;51.250;-1.118;2022-08-06T13:45:26;1.67;;;1.58;;
70667;SDS011;58242;51.250;-1.118;2022-08-06T13:48:02;2.22;;;1.40;;
70667;SDS011;58242;51.250;-1.118;2022-08-06T13:50:29;2.55;;;1.58;;
70667;SDS011;58242;51.250;-1.118;2022-08-06T13:52:56;1.40;;;1.40;;
70667;SDS011;58242;51.250;-1.118;2022-08-06T13:55:22;1.90;;;1.60;;
70667;SDS011;58242;51.250;-1.118;2022-08-06T13:57:49;1.20;;;1.20;;
70667;SDS011;58242;51.250;-1.118;2022-08-06T14:00:15;1.92;;;1.48;;
70667;SDS011;58242;51.250;-1.118;2022-08-06T14:02:40;1.67;;;1.50;;
70667;SDS011;58242;51.250;-1.118;2022-08-06T14:05:06;1.75;;;1.65;;
70667;SDS011;58242;51.250;-1.118;2022-08-06T14:07:32;1.48;;;1.38;;
70667;SDS011;58242;51.250;-1.118;2022-08-06T14:09:57;1.65;;;1.45;;
70667;SDS011;58242;51.250;-1.118;2022-08-06T14:12:23;1.95;;;1.77;;
70667;SDS011;58242;51.250;-1.118;2022-08-06T14:14:48;1.55;;;1.45;;
70667;SDS011;58242;51.250;-1.118;2022-08-06T14:17:14;2.60;;;1.98;;
70667;SDS011;58242;51.250;-1.118;2022-08-06T14:19:40;1.95;;;1.85;;
70667;SDS011;58242;51.250;-1.118;2022-08-06T14:22:06;2.03;;;1.85;;
70667;SDS011;58242;51.250;-1.118;2022-08-06T14:24:32;1.77;;;1.50;;
70667;SDS011;58242;51.250;-1.118;2022-08-06T14:26:58;1.70;;;1.60;;
70667;SDS011;58242;51.250;-1.118;2022-08-06T14:29:24;2.35;;;1.77;;
70667;SDS011;58242;51.250;-1.118;2022-08-06T14:31:49;2.03;;;1.83;;
70667;SDS011;58242;51.250;-1.118;2022-08-06T14:34:15;2.03;;;1.85;;
70667;SDS011;58242;51.250;-1.118;2022-08-06T14:36:41;1.40;;;1.30;;
70667;SDS011;58242;51.250;-1.118;2022-08-06T14:39:06;1.52;;;1.42;;
70667;SDS011;58242;51.250;-1.118;2022-08-06T14:41:38;1.83;;;1.73;;
70667;SDS011;58242;51.250;-1.118;2022-08-06T14:44:22;1.55;;;1.45;;
70667;SDS011;58242;51.250;-1.118;2022-08-06T14:47:06;1.70;;;1.60;;
70667;SDS011;58242;51.250;-1.118;2022-08-06T14:49:33;1.85;;;1.50;;
70667;SDS011;58242;51.250;-1.118;2022-08-06T14:51:59;2.58;;;1.70;;
70667;SDS011;58242;51.250;-1.118;2022-08-06T14:54:25;2.67;;;1.55;;
70667;SDS011;58242;51.250;-1.118;2022-08-06T14:56:51;1.67;;;1.58;;
70667;SDS011;58242;51.250;-1.118;2022-08-06T14:59:16;1.35;;;1.25;;
70667;SDS011;58242;51.250;-1.118;2022-08-06T15:01:42;1.98;;;1.40;;
70667;SDS011;58242;51.250;-1.118;2022-08-06T15:04:08;1.70;;;1.60;;
70667;SDS011;58242;51.250;-1.118;2022-08-06T15:06:33;1.42;;;1.33;;
70667;SDS011;58242;51.250;-1.118;2022-08-06T15:08:58;1.75;;;1.65;;
70667;SDS011;58242;51.250;-1.118;2022-08-06T15:11:24;1.73;;;1.63;;
70667;SDS011;58242;51.250;-1.118;2022-08-06T15:13:49;1.77;;;1.60;;
70667;SDS011;58242;51.250;-1.118;2022-08-06T15:16:15;2.05;;;1.92;;
70667;SDS011;58242;51.250;-1.118;2022-08-06T15:18:40;2.10;;;1.92;;
70667;SDS011;58242;51.250;-1.118;2022-08-06T15:21:07;3.00;;;2.28;;
70667;SDS011;58242;51.250;-1.118;2022-08-06T15:23:33;2.13;;;2.03;;
70667;SDS011;58242;51.250;-1.118;2022-08-06T15:25:59;2.28;;;2.15;;
70667;SDS011;58242;51.250;-1.118;2022-08-06T15:28:24;2.28;;;1.80;;
70667;SDS011;58242;51.250;-1.118;2022-08-06T15:30:49;5.38;;;2.00;;
70667;SDS011;58242;51.250;-1.118;2022-08-06T15:33:15;2.30;;;2.20;;
70667;SDS011;58242;51.250;-1.118;2022-08-06T15:35:40;2.90;;;2.35;;
70667;SDS011;58242;51.250;-1.118;2022-08-06T15:38:06;2.75;;;2.20;;
70667;SDS011;58242;51.250;-1.118;2022-08-06T15:40:31;3.00;;;1.90;;
70667;SDS011;58242;51.250;-1.118;2022-08-06T15:42:56;2.47;;;2.28;;
70667;SDS011;58242;51.250;-1.118;2022-08-06T15:45:22;2.38;;;2.17;;
70667;SDS011;58242;51.250;-1.118;2022-08-06T15:47:47;2.33;;;2.15;;
70667;SDS011;58242;51.250;-1.118;2022-08-06T15:50:12;2.08;;;1.98;;